createdAt,value
2023-04-11T00:00:35.402Z,12.60
2023-04-11T00:03:02.469Z,12.60
2023-04-11T00:05:31.379Z,12.50
2023-04-11T00:07:58.155Z,12.50
2023-04-11T00:10:25.284Z,12.50
2023-04-11T00:12:52.890Z,12.50
2023-04-11T00:15:20.027Z,12.50
2023-04-11T00:17:49.455Z,12.50
2023-04-11T00:20:16.293Z,12.50
2023-04-11T00:22:43.768Z,12.50
2023-04-11T00:25:10.716Z,12.50
2023-04-11T00:27:40.085Z,12.50
2023-04-11T00:30:09.674Z,12.40
2023-04-11T00:32:38.770Z,12.40
2023-04-11T00:35:08.684Z,12.40
2023-04-11T00:37:36.195Z,12.40
2023-04-11T00:40:05.688Z,12.30
2023-04-11T00:42:38.023Z,12.30
2023-04-11T00:45:05.073Z,12.30
2023-04-11T00:47:32.448Z,12.30
2023-04-11T00:49:59.297Z,12.30
2023-04-11T00:52:26.074Z,12.30
2023-04-11T00:54:52.907Z,12.30
2023-04-11T00:57:19.681Z,12.30
2023-04-11T00:59:48.388Z,12.20
2023-04-11T01:02:15.372Z,12.20
2023-04-11T01:04:44.469Z,12.20
2023-04-11T01:07:14.066Z,12.20
2023-04-11T01:09:41.003Z,12.20
2023-04-11T01:12:10.636Z,12.20
2023-04-11T01:17:21.778Z,12.20
2023-04-11T01:19:48.663Z,12.10
2023-04-11T01:22:17.898Z,12.10
2023-04-11T01:24:46.875Z,12.10
2023-04-11T01:27:13.884Z,12.10
2023-04-11T01:29:40.750Z,12.10
2023-04-11T01:32:09.801Z,12.10
2023-04-11T01:34:37.731Z,12.10
2023-04-11T01:37:04.408Z,12.10
2023-04-11T01:39:31.194Z,12.10
2023-04-11T01:42:01.034Z,12.00
2023-04-11T01:44:28.327Z,12.00
2023-04-11T01:46:55.433Z,12.00
2023-04-11T01:49:23.706Z,12.00
2023-04-11T01:51:50.515Z,12.00
2023-04-11T01:54:17.383Z,12.00
2023-04-11T01:56:44.156Z,11.90
2023-04-11T01:59:10.929Z,12.00
2023-04-11T02:01:42.257Z,12.00
2023-04-11T02:04:11.621Z,12.00
2023-04-11T02:06:41.305Z,11.90
2023-04-11T02:09:08.220Z,11.90
2023-04-11T02:11:35.071Z,11.90
2023-04-11T02:14:02.845Z,11.90
2023-04-11T02:16:30.670Z,11.90
2023-04-11T02:18:57.913Z,11.90
2023-04-11T02:21:24.871Z,11.90
2023-04-11T02:23:51.647Z,11.90
2023-04-11T02:26:18.546Z,11.90
2023-04-11T02:28:50.453Z,11.90
2023-04-11T02:31:17.235Z,11.80
2023-04-11T02:33:44.076Z,11.80
2023-04-11T02:36:13.799Z,11.80
2023-04-11T02:38:48.944Z,11.80
2023-04-11T02:41:15.688Z,11.70
2023-04-11T02:43:42.380Z,11.70
2023-04-11T02:46:12.841Z,11.70
2023-04-11T02:48:42.987Z,11.70
2023-04-11T02:51:11.362Z,11.70
2023-04-11T02:53:38.116Z,11.70
2023-04-11T02:56:05.332Z,11.70
2023-04-11T02:58:38.885Z,11.70
2023-04-11T03:01:07.943Z,11.70
2023-04-11T03:03:34.848Z,11.70
2023-04-11T03:06:01.819Z,11.70
2023-04-11T03:08:29.319Z,11.70
2023-04-11T03:10:56.123Z,11.70
2023-04-11T03:13:30.225Z,11.70
2023-04-11T03:15:57.064Z,11.70
2023-04-11T03:18:29.429Z,11.70
2023-04-11T03:21:00.514Z,11.70
2023-04-11T03:23:27.726Z,11.70
2023-04-11T03:25:54.616Z,11.70
2023-04-11T03:28:26.487Z,11.80
2023-04-11T03:30:54.394Z,11.70
2023-04-11T03:33:24.830Z,11.70
2023-04-11T03:35:54.376Z,11.70
2023-04-11T03:38:21.251Z,11.70
2023-04-11T03:40:48.188Z,11.70
2023-04-11T03:43:19.084Z,11.70
2023-04-11T03:45:46.392Z,11.70
2023-04-11T03:48:31.893Z,11.70
2023-04-11T03:51:05.315Z,11.70
2023-04-11T03:53:44.789Z,11.70
2023-04-11T03:56:34.114Z,11.70
2023-04-11T03:59:01.587Z,11.70
2023-04-11T04:01:38.050Z,11.80
2023-04-11T04:04:06.557Z,11.80
2023-04-11T04:06:38.580Z,11.80
2023-04-11T04:09:06.905Z,11.80
2023-04-11T04:11:45.651Z,11.80
2023-04-11T04:14:16.482Z,11.80
2023-04-11T04:16:43.288Z,11.80
2023-04-11T04:19:12.185Z,11.80
2023-04-11T04:21:45.731Z,11.80
2023-04-11T04:24:13.221Z,11.80
2023-04-11T04:26:51.711Z,11.80
2023-04-11T04:29:45.986Z,11.70
2023-04-11T04:32:22.964Z,11.60
2023-04-11T04:34:59.116Z,11.40
2023-04-11T04:37:31.495Z,11.30
2023-04-11T04:40:13.856Z,11.20
2023-04-11T04:42:58.267Z,11.00
2023-04-11T04:45:35.787Z,10.90
2023-04-11T04:51:58.412Z,10.80
2023-04-11T04:54:25.533Z,10.80
2023-04-11T04:56:52.887Z,10.80
2023-04-11T04:59:20.888Z,10.80
2023-04-11T05:01:54.561Z,10.70
2023-04-11T05:04:27.561Z,10.70
2023-04-11T05:06:57.793Z,10.70
2023-04-11T05:09:24.658Z,10.70
2023-04-11T05:11:54.918Z,10.70
2023-04-11T05:14:23.108Z,10.70
2023-04-11T05:16:52.436Z,10.60
2023-04-11T05:19:19.458Z,10.60
2023-04-11T05:21:52.309Z,10.60
2023-04-11T05:24:21.890Z,10.70
2023-04-11T05:26:48.772Z,10.70
2023-04-11T05:29:21.301Z,10.70
2023-04-11T05:31:49.068Z,10.70
2023-04-11T05:34:16.443Z,10.70
2023-04-11T05:36:46.327Z,10.60
2023-04-11T05:39:13.257Z,10.60
2023-04-11T05:41:40.031Z,10.50
2023-04-11T05:44:09.146Z,10.50
2023-04-11T05:46:38.556Z,10.50
2023-04-11T05:49:07.760Z,10.50
2023-04-11T05:51:37.102Z,10.50
2023-04-11T05:54:03.860Z,10.50
2023-04-11T05:56:30.583Z,10.50
2023-04-11T05:58:59.765Z,10.50
2023-04-11T06:01:30.110Z,10.50
2023-04-11T06:07:58.358Z,10.50
2023-04-11T06:10:25.502Z,10.50
2023-04-11T06:12:57.239Z,10.60
2023-04-11T06:15:24.765Z,10.60
2023-04-11T06:17:51.655Z,10.70
2023-04-11T06:20:21.180Z,10.80
2023-04-11T06:22:51.222Z,10.90
2023-04-11T06:25:21.327Z,10.90
2023-04-11T06:27:48.269Z,10.90
2023-04-11T06:30:17.352Z,10.90
2023-04-11T06:32:44.136Z,10.90
2023-04-11T06:35:11.185Z,10.80
2023-04-11T06:37:37.988Z,10.80
2023-04-11T06:40:07.988Z,10.80
2023-04-11T06:42:37.280Z,10.70
2023-04-11T06:45:07.454Z,10.70
2023-04-11T06:47:34.288Z,10.70
2023-04-11T06:50:01.027Z,10.70
2023-04-11T06:52:28.440Z,10.80
2023-04-11T06:54:57.684Z,10.80
2023-04-11T06:57:24.470Z,10.80
2023-04-11T06:59:53.674Z,10.90
2023-04-11T07:02:21.981Z,11.00
2023-04-11T07:04:48.840Z,11.00
2023-04-11T07:07:18.094Z,11.00
2023-04-11T07:17:28.905Z,11.10
2023-04-11T07:19:55.966Z,11.10
2023-04-11T07:22:24.896Z,11.10
2023-04-11T07:43:55.442Z,11.30
2023-04-11T07:46:25.131Z,11.30
2023-04-11T07:48:52.343Z,11.40
2023-04-11T07:51:23.678Z,11.40
2023-04-11T07:53:50.769Z,11.50
2023-04-11T07:56:23.721Z,11.50
2023-04-11T07:58:58.619Z,11.50
2023-04-11T08:01:32.254Z,11.40
2023-04-11T08:04:03.385Z,11.40
2023-04-11T08:06:32.152Z,11.40
2023-04-11T08:09:07.177Z,11.40
2023-04-11T08:15:44.228Z,11.50
2023-04-11T08:18:17.158Z,11.50
2023-04-11T08:33:33.093Z,11.20
2023-04-11T08:36:00.851Z,11.20
2023-04-11T08:38:33.027Z,11.20
2023-04-11T08:41:02.637Z,11.20
2023-04-11T08:43:34.787Z,11.20
2023-04-11T08:46:08.702Z,11.10
2023-04-11T09:22:34.917Z,12.10
2023-04-11T09:25:03.695Z,12.40
2023-04-11T09:27:33.173Z,12.40
2023-04-11T09:30:02.150Z,12.50
2023-04-11T09:37:55.711Z,14.10
2023-04-11T09:40:48.479Z,15.00
2023-04-11T09:43:19.369Z,14.90
2023-04-11T09:45:54.593Z,14.80
2023-04-11T09:48:39.811Z,14.80
2023-04-11T09:51:20.696Z,14.90
2023-04-11T09:53:56.087Z,14.90
2023-04-11T09:56:24.049Z,14.80
2023-04-11T09:58:52.938Z,15.30
2023-04-11T10:01:20.607Z,15.50
2023-04-11T10:03:51.012Z,15.60
2023-04-11T10:06:45.637Z,15.70
2023-04-11T10:09:15.097Z,16.10
2023-04-11T10:11:43.326Z,16.60
2023-04-11T10:14:39.433Z,16.40
2023-04-11T10:17:23.041Z,17.80
2023-04-11T10:19:57.978Z,18.00
2023-04-11T10:22:43.941Z,18.40
2023-04-11T10:25:21.829Z,19.50
2023-04-11T10:27:53.396Z,19.90
2023-04-11T10:30:39.359Z,21.00
2023-04-11T10:33:14.674Z,21.40
2023-04-11T10:36:06.632Z,20.20
2023-04-11T10:38:49.266Z,19.80
2023-04-11T10:41:27.400Z,18.70
2023-04-11T10:44:13.199Z,18.10
2023-04-11T10:46:48.781Z,17.50
2023-04-11T10:49:32.843Z,16.90
2023-04-11T10:52:21.465Z,16.20
2023-04-11T10:54:53.069Z,15.50
2023-04-11T10:57:22.971Z,15.00
2023-04-11T11:00:10.567Z,14.60
2023-04-11T11:10:53.458Z,14.00
2023-04-11T11:17:13.931Z,14.90
2023-04-11T11:19:48.108Z,15.90
2023-04-11T11:22:28.934Z,15.80
2023-04-11T11:25:08.269Z,15.50
2023-04-11T11:27:35.284Z,15.10
2023-04-11T11:30:14.287Z,14.70
2023-04-11T11:32:41.090Z,14.80
2023-04-11T11:35:16.600Z,15.10
2023-04-11T11:37:43.926Z,15.30
2023-04-11T11:40:13.426Z,15.60
2023-04-11T11:42:43.003Z,15.80
2023-04-11T11:45:22.481Z,16.70
2023-04-11T11:47:50.515Z,17.00
2023-04-11T11:50:31.226Z,17.60
2023-04-11T11:53:15.144Z,17.70
2023-04-11T11:55:43.260Z,18.50
2023-04-11T11:58:10.451Z,18.90
2023-04-11T12:00:39.580Z,18.80
2023-04-11T12:03:09.973Z,18.10
2023-04-11T12:05:37.745Z,17.50
2023-04-11T12:08:07.298Z,17.00
2023-04-11T12:10:51.378Z,17.20
2023-04-11T12:13:20.655Z,16.80
2023-04-11T12:15:55.653Z,16.80
2023-04-11T12:18:24.050Z,16.60
2023-04-11T12:20:51.677Z,16.20
2023-04-11T12:23:19.008Z,16.30
2023-04-11T12:25:46.795Z,16.40
2023-04-11T12:28:14.057Z,16.20
2023-04-11T12:30:41.096Z,16.10
2023-04-11T12:33:08.106Z,16.30
2023-04-11T12:35:39.650Z,16.50
2023-04-11T12:38:09.181Z,16.80
2023-04-11T12:40:36.794Z,17.40
2023-04-11T12:43:03.615Z,18.00
2023-04-11T12:45:32.416Z,18.80
2023-04-11T12:47:59.396Z,19.30
2023-04-11T12:54:23.368Z,20.20
2023-04-11T12:56:50.220Z,20.40
2023-04-11T12:59:19.361Z,20.80
2023-04-11T13:01:48.444Z,20.30
2023-04-11T13:04:15.677Z,19.20
2023-04-11T13:06:43.209Z,18.10
2023-04-11T13:09:15.980Z,17.00
2023-04-11T13:11:42.862Z,16.20
2023-04-11T13:14:09.739Z,15.40
2023-04-11T13:16:36.990Z,14.90
2023-04-11T13:19:03.722Z,14.30
2023-04-11T13:21:31.576Z,13.80
2023-04-11T13:24:00.801Z,13.50
2023-04-11T13:26:28.547Z,13.30
2023-04-11T13:28:55.523Z,13.10
2023-04-11T13:31:26.636Z,12.90
2023-04-11T13:33:59.063Z,12.70
2023-04-11T13:36:29.656Z,12.50
2023-04-11T13:38:57.371Z,12.40
2023-04-11T13:41:24.680Z,12.30
2023-04-11T13:43:52.214Z,12.30
2023-04-11T13:46:19.311Z,12.20
2023-04-11T13:48:48.539Z,12.20
2023-04-11T13:51:17.780Z,12.20
2023-04-11T13:53:44.668Z,12.10
2023-04-11T13:56:11.558Z,12.20
2023-04-11T13:58:38.900Z,12.20
2023-04-11T14:01:06.741Z,12.00
2023-04-11T14:03:36.370Z,11.80
2023-04-11T14:06:03.477Z,11.70
2023-04-11T14:08:30.990Z,11.60
2023-04-11T14:10:57.926Z,11.50
2023-04-11T14:13:24.811Z,11.20
2023-04-11T14:16:07.265Z,11.20
2023-04-11T14:18:36.091Z,11.10
2023-04-11T14:21:03.665Z,10.90
2023-04-11T14:23:30.782Z,10.80
2023-04-11T14:25:57.637Z,10.70
2023-04-11T14:28:26.588Z,10.80
2023-04-11T14:30:53.934Z,10.80
2023-04-11T14:33:23.883Z,10.90
2023-04-11T14:35:51.149Z,11.20
2023-04-11T14:38:17.966Z,11.70
2023-04-11T14:40:47.092Z,12.00
2023-04-11T14:43:13.810Z,12.20
2023-04-11T14:46:25.561Z,12.20
2023-04-11T14:48:55.032Z,12.30
2023-04-11T14:51:23.370Z,12.30
2023-04-11T14:53:55.143Z,12.30
2023-04-11T14:56:26.434Z,12.30
2023-04-11T14:58:53.434Z,12.40
2023-04-11T15:01:20.457Z,12.50
2023-04-11T15:03:47.546Z,12.70
2023-04-11T15:06:14.623Z,12.80
2023-04-11T15:08:41.534Z,12.90
2023-04-11T15:11:10.695Z,12.90
2023-04-11T15:13:37.497Z,13.00
2023-04-11T15:16:09.442Z,13.20
2023-04-11T15:18:36.276Z,13.40
2023-04-11T15:21:06.110Z,15.20
2023-04-11T15:23:33.305Z,18.50
2023-04-11T15:26:08.425Z,21.60
2023-04-11T15:28:36.872Z,23.00
2023-04-11T15:31:06.315Z,22.20
2023-04-11T15:33:34.103Z,21.00
2023-04-11T15:36:04.694Z,19.30
2023-04-11T15:38:31.690Z,18.30
2023-04-11T15:40:59.777Z,18.80
2023-04-11T15:43:27.346Z,18.80
2023-04-11T15:45:54.727Z,18.60
2023-04-11T15:48:21.796Z,19.10
2023-04-11T15:50:51.110Z,18.70
2023-04-11T15:53:18.126Z,17.80
2023-04-11T15:55:46.826Z,16.90
2023-04-11T15:58:16.236Z,16.30
2023-04-11T16:00:47.086Z,16.00
2023-04-11T16:03:14.347Z,15.80
2023-04-11T16:05:43.245Z,15.90
2023-04-11T16:08:10.374Z,15.80
2023-04-11T16:10:37.283Z,15.20
2023-04-11T16:13:04.188Z,14.80
2023-04-11T16:15:34.223Z,14.50
2023-04-11T16:18:01.312Z,14.20
2023-04-11T16:20:28.227Z,13.50
2023-04-11T16:22:57.442Z,13.00
2023-04-11T16:25:26.570Z,12.70
2023-04-11T16:27:53.293Z,12.40
2023-04-11T16:30:22.107Z,12.40
2023-04-11T16:32:48.917Z,12.30
2023-04-11T16:35:15.680Z,12.30
2023-04-11T16:37:45.036Z,12.20
2023-04-11T16:40:12.452Z,12.00
2023-04-11T16:42:39.604Z,11.90
2023-04-11T16:45:06.787Z,11.80
2023-04-11T16:47:33.567Z,11.70
2023-04-11T16:50:04.943Z,11.70
2023-04-11T16:52:31.988Z,11.70
2023-04-11T16:54:58.704Z,11.70
2023-04-11T16:57:27.603Z,11.80
2023-04-11T16:59:54.557Z,11.90
2023-04-11T17:02:21.349Z,11.90
2023-04-11T17:04:48.235Z,11.90
2023-04-11T17:07:15.047Z,11.80
2023-04-11T17:09:41.822Z,11.60
2023-04-11T17:12:10.680Z,11.50
2023-04-11T17:14:37.526Z,11.50
2023-04-11T17:17:06.474Z,11.40
2023-04-11T17:19:33.332Z,11.30
2023-04-11T17:22:00.187Z,11.30
2023-04-11T17:24:27.058Z,11.20
2023-04-11T17:26:59.705Z,11.10
2023-04-11T17:29:26.463Z,11.10
2023-04-11T17:31:53.202Z,11.00
2023-04-11T17:34:19.947Z,11.00
2023-04-11T17:36:46.723Z,10.90
2023-04-11T17:39:17.596Z,10.80
2023-04-11T17:41:45.359Z,10.80
2023-04-11T17:44:12.379Z,10.80
2023-04-11T17:46:39.354Z,10.70
2023-04-11T17:49:10.834Z,10.70
2023-04-11T17:51:48.737Z,10.60
2023-04-11T17:54:19.406Z,10.60
2023-04-11T17:56:48.758Z,10.60
2023-04-11T17:59:17.189Z,10.60
2023-04-11T18:01:46.375Z,10.50
2023-04-11T18:04:14.600Z,10.50
2023-04-11T18:06:42.323Z,10.50
2023-04-11T18:09:09.176Z,10.40
2023-04-11T18:11:36.283Z,10.30
2023-04-11T18:14:03.163Z,10.30
2023-04-11T18:16:32.303Z,10.30
2023-04-11T18:18:59.113Z,10.30
2023-04-11T18:21:28.309Z,10.20
2023-04-11T18:23:58.514Z,10.20
2023-04-11T18:26:25.578Z,10.20
2023-04-11T18:28:52.360Z,10.20
2023-04-11T18:31:19.189Z,10.10
2023-04-11T18:33:47.692Z,10.10
2023-04-11T18:36:17.530Z,10.10
2023-04-11T18:38:44.350Z,10.10
2023-04-11T18:41:13.955Z,10.00
2023-04-11T18:43:41.535Z,10.00
2023-04-11T18:46:09.559Z,10.00
2023-04-11T18:48:36.738Z,10.00
2023-04-11T18:51:04.897Z,9.90
2023-04-11T18:53:32.461Z,9.90
2023-04-11T18:56:02.887Z,9.90
2023-04-11T18:58:31.893Z,9.90
2023-04-11T19:01:13.214Z,9.80
2023-04-11T19:03:42.275Z,9.80
2023-04-11T19:06:10.217Z,9.80
2023-04-11T19:08:39.404Z,9.70
2023-04-11T19:11:06.281Z,9.70
2023-04-11T19:13:35.712Z,9.70
2023-04-11T19:16:02.555Z,9.60
2023-04-11T19:18:31.938Z,9.50
2023-04-11T19:20:58.716Z,9.50
2023-04-11T19:23:25.621Z,9.50
2023-04-11T19:25:54.891Z,9.50
2023-04-11T19:28:21.692Z,9.50
2023-04-11T19:30:51.061Z,9.50
2023-04-11T19:33:18.100Z,9.40
2023-04-11T19:35:45.094Z,9.40
2023-04-11T19:38:14.412Z,9.40
2023-04-11T19:40:41.237Z,9.40
2023-04-11T19:43:10.712Z,9.30
2023-04-11T19:45:40.281Z,9.20
2023-04-11T19:48:07.184Z,9.30
2023-04-11T19:50:34.013Z,9.20
2023-04-11T19:53:05.894Z,9.20
2023-04-11T19:55:32.695Z,9.20
2023-04-11T19:57:59.504Z,9.20
2023-04-11T20:00:28.646Z,9.20
2023-04-11T20:02:58.431Z,9.20
2023-04-11T20:05:25.392Z,9.20
2023-04-11T20:07:52.198Z,9.10
2023-04-11T20:10:21.980Z,9.10
2023-04-11T20:12:48.913Z,9.10
2023-04-11T20:15:18.713Z,9.10
2023-04-11T20:17:47.752Z,9.10
2023-04-11T20:20:15.483Z,9.10
2023-04-11T20:22:44.730Z,9.10
2023-04-11T20:25:11.957Z,9.00
2023-04-11T20:27:39.314Z,8.90
2023-04-11T20:30:07.783Z,8.90
2023-04-11T20:32:34.619Z,8.90
2023-04-11T20:35:06.048Z,8.90
2023-04-11T20:37:36.243Z,8.90
2023-04-11T20:40:07.386Z,8.90
2023-04-11T20:42:35.182Z,8.90
2023-04-11T20:45:02.630Z,8.90
2023-04-11T20:47:29.406Z,8.80
2023-04-11T20:50:04.009Z,8.80
2023-04-11T20:52:32.569Z,8.80
2023-04-11T20:54:59.686Z,8.70
2023-04-11T20:57:26.736Z,8.70
2023-04-11T20:59:56.695Z,8.70
2023-04-11T21:02:24.058Z,8.70
2023-04-11T21:04:53.950Z,8.70
2023-04-11T21:07:21.013Z,8.60
2023-04-11T21:09:48.655Z,8.60
2023-04-11T21:12:15.738Z,8.60
2023-04-11T21:14:42.541Z,8.60
2023-04-11T21:17:12.918Z,8.60
2023-04-11T21:19:39.747Z,8.60
2023-04-11T21:22:06.475Z,8.60
2023-04-11T21:24:33.771Z,8.50
2023-04-11T21:27:01.331Z,8.50
2023-04-11T21:29:30.937Z,8.50
2023-04-11T21:32:00.045Z,8.50
2023-04-11T21:34:26.919Z,8.40
2023-04-11T21:36:53.737Z,8.40
2023-04-11T21:39:22.950Z,8.40
2023-04-11T21:41:49.827Z,8.40
2023-04-11T21:44:18.655Z,8.40
2023-04-11T21:46:45.563Z,8.40
2023-04-11T21:49:14.626Z,8.40
2023-04-11T21:51:41.431Z,8.40
2023-04-11T21:54:08.118Z,8.30
2023-04-11T21:56:34.923Z,8.30
2023-04-11T21:59:01.646Z,8.30
2023-04-11T22:01:29.061Z,8.30
2023-04-11T22:03:58.953Z,8.30
2023-04-11T22:06:26.606Z,8.30
2023-04-11T22:08:58.183Z,8.30
2023-04-11T22:11:27.368Z,8.20
2023-04-11T22:13:54.127Z,8.20
2023-04-11T22:16:26.294Z,8.20
2023-04-11T22:18:54.339Z,8.20
2023-04-11T22:21:21.118Z,8.10
2023-04-11T22:23:57.225Z,8.10
2023-04-11T22:26:29.387Z,8.10
2023-04-11T22:28:58.312Z,8.10
2023-04-11T22:31:30.684Z,8.00
2023-04-11T22:33:57.956Z,8.00
2023-04-11T22:36:24.989Z,8.00
2023-04-11T22:38:54.739Z,7.90
2023-04-11T22:41:21.855Z,7.90
2023-04-11T22:43:50.960Z,7.90
2023-04-11T22:46:19.978Z,7.80
2023-04-11T22:48:49.161Z,7.80
2023-04-11T22:51:18.331Z,7.80
2023-04-11T22:53:48.144Z,7.80
2023-04-11T22:56:15.768Z,7.80
2023-04-11T22:58:46.006Z,7.80
2023-04-11T23:01:16.305Z,7.70
2023-04-11T23:03:45.433Z,7.70
2023-04-11T23:06:12.691Z,7.70
2023-04-11T23:08:42.193Z,7.70
2023-04-11T23:11:11.520Z,7.70
2023-04-11T23:13:40.372Z,7.60
2023-04-11T23:16:08.979Z,7.60
2023-04-11T23:18:35.753Z,7.60
2023-04-11T23:21:02.724Z,7.60
2023-04-11T23:23:31.906Z,7.60
2023-04-11T23:26:01.091Z,7.60
2023-04-11T23:28:28.229Z,7.50
2023-04-11T23:30:55.032Z,7.50
2023-04-11T23:33:25.640Z,7.50
2023-04-11T23:35:52.840Z,7.50
2023-04-11T23:38:19.765Z,7.50
2023-04-11T23:40:46.572Z,7.40
2023-04-11T23:47:14.135Z,7.40
2023-04-11T23:49:44.247Z,7.40
2023-04-11T23:52:13.985Z,7.30
2023-04-11T23:54:41.867Z,7.30
2023-04-11T23:57:11.825Z,7.30
2023-04-11T23:59:40.902Z,7.30
